createdAt,value
2022-09-18T00:00:57.471Z,11.80
2022-09-18T00:03:24.718Z,11.70
2022-09-18T00:05:51.368Z,11.70
2022-09-18T00:08:17.987Z,11.70
2022-09-18T00:10:46.762Z,11.70
2022-09-18T00:13:16.641Z,11.70
2022-09-18T00:15:43.357Z,11.70
2022-09-18T00:18:10.078Z,11.70
2022-09-18T00:20:37.646Z,11.60
2022-09-18T00:23:04.350Z,11.60
2022-09-18T00:25:32.205Z,11.60
2022-09-18T00:27:59.198Z,11.60
2022-09-18T00:30:25.846Z,11.60
2022-09-18T00:32:52.511Z,11.60
2022-09-18T00:35:19.998Z,11.60
2022-09-18T00:37:46.646Z,11.60
2022-09-18T00:40:13.320Z,11.60
2022-09-18T00:42:39.922Z,11.60
2022-09-18T00:45:06.837Z,11.60
2022-09-18T00:47:38.988Z,11.60
2022-09-18T00:50:12.403Z,11.50
2022-09-18T00:52:56.891Z,11.50
2022-09-18T00:55:34.104Z,11.50
2022-09-18T00:58:02.883Z,11.50
2022-09-18T01:00:30.987Z,11.50
2022-09-18T01:02:58.994Z,11.40
2022-09-18T01:05:44.329Z,11.40
2022-09-18T01:08:23.092Z,11.40
2022-09-18T01:11:26.251Z,11.40
2022-09-18T01:14:20.370Z,11.50
2022-09-18T01:17:02.867Z,11.50
2022-09-18T01:19:29.458Z,11.60
2022-09-18T01:22:26.818Z,11.60
2022-09-18T01:25:03.540Z,11.60
2022-09-18T01:28:09.450Z,11.60
2022-09-18T01:30:41.596Z,11.70
2022-09-18T01:33:15.788Z,11.70
2022-09-18T01:35:56.787Z,11.70
2022-09-18T01:38:43.898Z,11.80
2022-09-18T01:41:16.418Z,11.80
2022-09-18T01:43:45.302Z,11.70
2022-09-18T01:46:16.509Z,11.70
2022-09-18T01:48:57.365Z,11.70
2022-09-18T01:51:29.376Z,11.80
2022-09-18T01:54:08.930Z,11.80
2022-09-18T01:56:42.072Z,11.80
2022-09-18T01:59:17.028Z,11.80
2022-09-18T02:01:46.585Z,11.90
2022-09-18T02:04:23.220Z,11.90
2022-09-18T02:07:17.968Z,12.00
2022-09-18T02:09:45.038Z,11.90
2022-09-18T02:12:15.945Z,12.00
2022-09-18T02:14:46.959Z,12.00
2022-09-18T02:17:25.257Z,11.90
2022-09-18T02:19:57.472Z,12.00
2022-09-18T02:22:27.670Z,12.00
2022-09-18T02:24:56.522Z,12.00
2022-09-18T02:27:26.110Z,11.90
2022-09-18T02:29:53.923Z,12.00
2022-09-18T02:32:20.554Z,11.90
2022-09-18T02:34:47.576Z,12.00
2022-09-18T02:37:37.051Z,12.00
2022-09-18T02:40:07.733Z,11.90
2022-09-18T02:42:49.633Z,11.80
2022-09-18T02:45:33.214Z,11.80
2022-09-18T02:48:22.884Z,11.80
2022-09-18T02:51:04.680Z,11.80
2022-09-18T02:53:47.150Z,11.80
2022-09-18T02:56:21.441Z,11.80
2022-09-18T02:59:04.971Z,11.70
2022-09-18T03:01:33.232Z,11.70
2022-09-18T03:04:11.695Z,11.80
2022-09-18T03:06:38.631Z,11.80
2022-09-18T03:09:05.284Z,11.80
2022-09-18T03:11:31.901Z,11.80
2022-09-18T03:13:58.660Z,11.80
2022-09-18T03:16:25.432Z,11.80
2022-09-18T03:18:52.109Z,11.80
2022-09-18T03:21:18.790Z,11.80
2022-09-18T03:23:45.751Z,11.80
2022-09-18T03:26:12.694Z,11.80
2022-09-18T03:28:39.334Z,11.80
2022-09-18T03:31:06.134Z,11.90
2022-09-18T03:33:32.859Z,11.90
2022-09-18T03:35:59.524Z,11.90
2022-09-18T03:38:26.150Z,12.00
2022-09-18T03:40:52.792Z,12.00
2022-09-18T03:43:19.490Z,12.00
2022-09-18T03:45:46.149Z,12.00
2022-09-18T03:48:12.835Z,12.00
2022-09-18T03:50:39.562Z,11.90
2022-09-18T03:53:08.350Z,11.90
2022-09-18T03:55:36.544Z,11.90
2022-09-18T03:58:03.572Z,11.90
2022-09-18T04:00:30.308Z,11.90
2022-09-18T04:02:57.013Z,11.90
2022-09-18T04:05:23.758Z,11.90
2022-09-18T04:07:50.399Z,11.90
2022-09-18T04:10:17.316Z,11.90
2022-09-18T04:12:47.873Z,11.90
2022-09-18T04:15:15.947Z,11.90
2022-09-18T04:17:43.341Z,11.90
2022-09-18T04:20:10.410Z,11.90
2022-09-18T04:22:37.665Z,11.90
2022-09-18T04:25:05.158Z,11.90
2022-09-18T04:27:31.888Z,11.90
2022-09-18T04:29:58.526Z,11.90
2022-09-18T04:32:25.276Z,11.90
2022-09-18T04:34:52.023Z,11.90
2022-09-18T04:37:18.947Z,11.90
2022-09-18T04:39:46.944Z,11.90
2022-09-18T04:42:14.033Z,12.00
2022-09-18T04:44:40.722Z,12.00
2022-09-18T04:47:07.527Z,12.00
2022-09-18T04:49:34.178Z,12.00
2022-09-18T04:52:00.841Z,12.00
2022-09-18T04:54:27.522Z,12.00
2022-09-18T04:56:54.130Z,12.00
2022-09-18T04:59:20.822Z,12.00
2022-09-18T05:01:47.485Z,12.00
2022-09-18T05:04:14.397Z,12.00
2022-09-18T05:06:41.638Z,12.00
2022-09-18T05:09:08.326Z,12.00
2022-09-18T05:11:35.007Z,12.00
2022-09-18T05:14:01.619Z,12.10
2022-09-18T05:16:28.296Z,12.10
2022-09-18T05:18:54.965Z,12.10
2022-09-18T05:21:21.616Z,12.10
2022-09-18T05:23:48.290Z,12.10
2022-09-18T05:26:14.900Z,12.10
2022-09-18T05:28:41.741Z,12.10
2022-09-18T05:31:08.872Z,12.10
2022-09-18T05:33:36.569Z,12.10
2022-09-18T05:36:05.418Z,12.10
2022-09-18T05:38:32.165Z,12.10
2022-09-18T05:41:02.467Z,12.10
2022-09-18T05:43:29.638Z,12.10
2022-09-18T05:45:56.810Z,12.10
2022-09-18T05:48:23.711Z,12.10
2022-09-18T05:50:51.939Z,12.10
2022-09-18T05:53:21.712Z,12.10
2022-09-18T05:55:48.803Z,12.20
2022-09-18T05:58:17.611Z,12.10
2022-09-18T06:00:45.232Z,12.10
2022-09-18T06:03:14.345Z,12.10
2022-09-18T06:05:41.637Z,12.10
2022-09-18T06:08:10.163Z,12.10
2022-09-18T06:10:39.230Z,12.10
2022-09-18T06:13:16.244Z,12.10
2022-09-18T06:15:47.362Z,12.00
2022-09-18T06:18:15.270Z,12.10
2022-09-18T06:20:43.297Z,12.10
2022-09-18T06:23:10.200Z,12.20
2022-09-18T06:25:36.865Z,12.20
2022-09-18T06:28:06.439Z,12.30
2022-09-18T06:30:35.022Z,12.40
2022-09-18T06:33:06.800Z,12.50
2022-09-18T06:35:35.114Z,12.50
2022-09-18T06:38:03.055Z,12.60
2022-09-18T06:40:31.492Z,12.60
2022-09-18T06:42:59.655Z,12.60
2022-09-18T06:45:26.984Z,12.60
2022-09-18T06:47:55.043Z,12.70
2022-09-18T06:50:22.964Z,12.70
2022-09-18T06:52:49.963Z,12.70
2022-09-18T06:55:17.699Z,12.60
2022-09-18T06:57:54.513Z,12.60
2022-09-18T07:00:21.410Z,12.60
2022-09-18T07:03:00.701Z,12.60
2022-09-18T07:05:29.915Z,12.60
2022-09-18T07:07:57.045Z,12.70
2022-09-18T07:10:24.693Z,12.70
2022-09-18T07:12:58.093Z,12.70
2022-09-18T07:15:25.599Z,12.80
2022-09-18T07:17:55.253Z,12.80
2022-09-18T07:20:21.998Z,12.80
2022-09-18T07:22:59.593Z,12.80
2022-09-18T07:25:31.354Z,12.70
2022-09-18T07:28:10.289Z,12.70
2022-09-18T07:30:38.568Z,12.60
2022-09-18T07:33:07.150Z,12.60
2022-09-18T07:35:33.966Z,12.60
2022-09-18T07:38:01.670Z,12.50
2022-09-18T07:40:28.846Z,12.40
2022-09-18T07:43:00.598Z,12.50
2022-09-18T07:45:27.293Z,12.50
2022-09-18T07:47:53.936Z,12.50
2022-09-18T07:50:20.635Z,12.50
2022-09-18T07:52:52.329Z,12.40
2022-09-18T07:55:20.801Z,12.40
2022-09-18T07:57:59.231Z,12.40
2022-09-18T08:00:28.139Z,12.40
2022-09-18T08:03:06.773Z,12.40
2022-09-18T08:05:33.545Z,12.50
2022-09-18T08:08:08.905Z,12.60
2022-09-18T08:10:36.611Z,12.70
2022-09-18T08:13:04.193Z,12.80
2022-09-18T08:15:31.659Z,12.80
2022-09-18T08:17:58.606Z,12.90
2022-09-18T08:20:25.349Z,12.90
2022-09-18T08:22:51.971Z,13.00
2022-09-18T08:25:20.711Z,13.10
2022-09-18T08:27:47.451Z,13.10
2022-09-18T08:30:15.740Z,13.10
2022-09-18T08:32:42.580Z,13.10
2022-09-18T08:35:10.933Z,13.10
2022-09-18T08:37:37.822Z,13.00
2022-09-18T08:40:05.542Z,13.00
2022-09-18T08:42:57.156Z,13.00
2022-09-18T08:45:42.578Z,13.10
2022-09-18T08:48:18.544Z,13.10
2022-09-18T08:51:03.331Z,13.20
2022-09-18T08:53:40.252Z,13.20
2022-09-18T08:56:17.643Z,13.20
2022-09-18T08:59:00.700Z,13.30
2022-09-18T09:01:40.085Z,13.30
2022-09-18T09:04:17.556Z,13.30
2022-09-18T09:06:50.030Z,13.30
2022-09-18T09:09:32.180Z,13.30
2022-09-18T09:12:06.182Z,13.30
2022-09-18T09:14:57.121Z,13.30
2022-09-18T09:18:01.714Z,13.30
2022-09-18T09:20:54.446Z,13.30
2022-09-18T09:23:34.499Z,13.30
2022-09-18T09:26:22.999Z,13.30
2022-09-18T09:28:54.146Z,13.30
2022-09-18T09:31:25.615Z,13.30
2022-09-18T09:33:58.157Z,13.30
2022-09-18T09:36:29.299Z,13.30
2022-09-18T09:39:04.922Z,13.30
2022-09-18T09:41:41.370Z,13.30
2022-09-18T09:44:33.522Z,13.30
2022-09-18T09:47:05.397Z,13.30
2022-09-18T09:49:37.871Z,13.40
2022-09-18T09:52:15.633Z,13.50
2022-09-18T09:54:43.121Z,13.50
2022-09-18T09:57:25.898Z,13.60
2022-09-18T10:00:09.236Z,13.60
2022-09-18T10:02:45.091Z,13.70
2022-09-18T10:05:23.703Z,13.80
2022-09-18T10:08:00.178Z,13.80
2022-09-18T10:10:47.806Z,13.90
2022-09-18T10:13:16.810Z,13.90
2022-09-18T10:15:44.921Z,14.10
2022-09-18T10:18:30.892Z,14.10
2022-09-18T10:21:18.341Z,14.10
2022-09-18T10:23:54.929Z,14.20
2022-09-18T10:26:31.261Z,14.30
2022-09-18T10:28:58.895Z,14.20
2022-09-18T10:31:49.601Z,14.20
2022-09-18T10:34:37.215Z,14.10
2022-09-18T10:37:05.875Z,14.00
2022-09-18T10:39:33.806Z,13.90
2022-09-18T10:42:02.435Z,13.90
2022-09-18T10:44:41.732Z,13.80
2022-09-18T10:47:12.430Z,13.80
2022-09-18T10:49:59.279Z,13.80
2022-09-18T10:52:35.782Z,13.80
2022-09-18T10:55:05.500Z,13.80
2022-09-18T10:57:33.830Z,13.90
2022-09-18T11:00:01.451Z,13.90
2022-09-18T11:02:35.245Z,13.90
2022-09-18T11:05:03.416Z,13.90
2022-09-18T11:07:30.331Z,14.00
2022-09-18T11:09:57.078Z,14.00
2022-09-18T11:12:27.260Z,14.00
2022-09-18T11:15:02.881Z,14.00
2022-09-18T11:17:32.615Z,14.10
2022-09-18T11:20:01.090Z,14.10
2022-09-18T11:22:35.232Z,14.10
2022-09-18T11:25:26.768Z,14.20
2022-09-18T11:27:56.284Z,14.20
2022-09-18T11:30:32.137Z,14.20
2022-09-18T11:33:02.611Z,14.30
2022-09-18T11:35:31.572Z,14.30
2022-09-18T11:38:06.323Z,14.30
2022-09-18T11:40:43.131Z,14.30
2022-09-18T11:43:22.685Z,14.30
2022-09-18T11:46:04.484Z,14.40
2022-09-18T11:48:47.194Z,14.40
2022-09-18T11:51:49.266Z,14.40
2022-09-18T11:54:26.258Z,14.40
2022-09-18T11:56:58.317Z,14.40
2022-09-18T11:59:34.378Z,14.40
2022-09-18T12:02:10.597Z,14.40
2022-09-18T12:04:58.230Z,14.40
2022-09-18T12:07:41.347Z,14.50
2022-09-18T12:10:47.159Z,14.50
2022-09-18T12:13:33.722Z,14.60
2022-09-18T12:16:25.119Z,14.70
2022-09-18T12:19:20.077Z,14.70
2022-09-18T12:22:10.056Z,14.70
2022-09-18T12:24:36.727Z,14.70
2022-09-18T12:27:09.302Z,14.70
2022-09-18T12:29:48.639Z,14.70
2022-09-18T12:32:27.253Z,14.70
2022-09-18T12:35:15.250Z,14.70
2022-09-18T12:38:21.892Z,14.80
2022-09-18T12:41:12.371Z,14.80
2022-09-18T12:43:58.914Z,14.80
2022-09-18T12:46:34.095Z,14.80
2022-09-18T12:49:15.569Z,14.80
2022-09-18T12:52:00.670Z,14.80
2022-09-18T12:54:58.489Z,14.80
2022-09-18T12:57:58.197Z,14.80
2022-09-18T13:00:26.932Z,14.80
2022-09-18T13:03:16.656Z,14.80
2022-09-18T13:05:54.407Z,14.80
2022-09-18T13:08:32.632Z,14.80
2022-09-18T13:11:36.808Z,14.70
2022-09-18T13:14:28.018Z,14.70
2022-09-18T13:17:06.730Z,14.60
2022-09-18T13:19:38.015Z,14.60
2022-09-18T13:22:10.943Z,14.60
2022-09-18T13:24:40.181Z,14.60
2022-09-18T13:27:13.007Z,14.60
2022-09-18T13:29:51.623Z,14.70
2022-09-18T13:32:35.202Z,14.70
2022-09-18T13:35:07.108Z,14.80
2022-09-18T13:37:33.843Z,14.80
2022-09-18T13:40:11.229Z,14.80
2022-09-18T13:42:43.239Z,14.80
2022-09-18T13:45:18.208Z,14.90
2022-09-18T13:47:56.893Z,14.90
2022-09-18T13:50:23.699Z,15.00
2022-09-18T13:52:56.932Z,15.00
2022-09-18T13:55:25.282Z,15.00
2022-09-18T13:58:12.551Z,15.10
2022-09-18T14:00:41.692Z,15.10
2022-09-18T14:03:08.370Z,15.00
2022-09-18T14:05:38.462Z,15.00
2022-09-18T14:08:21.309Z,15.10
2022-09-18T14:11:05.009Z,15.10
2022-09-18T14:13:51.426Z,15.10
2022-09-18T14:16:23.832Z,15.00
2022-09-18T14:19:01.176Z,15.00
2022-09-18T14:21:31.916Z,15.00
2022-09-18T14:24:36.448Z,14.80
2022-09-18T14:27:27.133Z,15.00
2022-09-18T14:29:59.430Z,14.90
2022-09-18T14:32:27.618Z,14.80
2022-09-18T14:35:22.046Z,14.80
2022-09-18T14:37:48.740Z,14.80
2022-09-18T14:40:21.565Z,14.80
2022-09-18T14:42:48.823Z,14.80
2022-09-18T14:45:31.431Z,14.80
2022-09-18T14:47:59.260Z,14.70
2022-09-18T14:50:33.808Z,14.70
2022-09-18T14:53:03.516Z,14.70
2022-09-18T14:55:39.383Z,14.70
2022-09-18T14:58:15.663Z,14.60
2022-09-18T15:00:43.878Z,14.60
2022-09-18T15:03:24.638Z,14.60
2022-09-18T15:05:53.272Z,14.70
2022-09-18T15:08:26.519Z,14.70
2022-09-18T15:10:57.446Z,14.70
2022-09-18T15:13:25.574Z,14.70
2022-09-18T15:16:05.542Z,14.70
2022-09-18T15:18:42.689Z,14.60
2022-09-18T15:21:33.211Z,14.60
2022-09-18T15:24:02.391Z,14.60
2022-09-18T15:26:46.630Z,14.60
2022-09-18T15:29:31.133Z,14.60
2022-09-18T15:31:58.458Z,14.50
2022-09-18T15:34:32.477Z,14.50
2022-09-18T15:37:01.945Z,14.50
2022-09-18T15:39:37.888Z,14.40
2022-09-18T15:42:33.392Z,14.40
2022-09-18T15:44:59.963Z,14.40
2022-09-18T15:47:30.393Z,14.40
2022-09-18T15:49:58.365Z,14.40
2022-09-18T15:52:38.584Z,14.30
2022-09-18T15:55:10.519Z,14.30
2022-09-18T15:57:39.168Z,14.30
2022-09-18T16:00:10.923Z,14.30
2022-09-18T16:02:39.169Z,14.20
2022-09-18T16:05:11.948Z,14.20
2022-09-18T16:07:40.597Z,14.10
2022-09-18T16:10:35.064Z,14.10
2022-09-18T16:13:14.261Z,14.00
2022-09-18T16:15:47.623Z,13.90
2022-09-18T16:18:25.472Z,13.80
2022-09-18T16:20:53.669Z,13.80
2022-09-18T16:23:24.239Z,13.70
2022-09-18T16:26:11.231Z,13.60
2022-09-18T16:28:42.959Z,13.60
2022-09-18T16:31:12.192Z,13.50
2022-09-18T16:33:57.339Z,13.50
2022-09-18T16:36:28.697Z,13.50
2022-09-18T16:38:56.494Z,13.50
2022-09-18T16:41:23.317Z,13.50
2022-09-18T16:43:51.379Z,13.50
2022-09-18T16:46:20.696Z,13.50
2022-09-18T16:48:47.510Z,13.40
2022-09-18T16:51:14.425Z,13.40
2022-09-18T16:53:42.301Z,13.40
2022-09-18T16:56:12.358Z,13.30
2022-09-18T16:58:40.601Z,13.30
2022-09-18T17:01:07.495Z,13.30
2022-09-18T17:03:34.285Z,13.30
2022-09-18T17:06:03.997Z,13.30
2022-09-18T17:08:30.764Z,13.30
2022-09-18T17:10:57.679Z,13.20
2022-09-18T17:13:24.414Z,13.20
2022-09-18T17:15:51.220Z,13.20
2022-09-18T17:18:18.040Z,13.10
2022-09-18T17:20:45.893Z,13.20
2022-09-18T17:23:12.684Z,13.20
2022-09-18T17:25:40.405Z,13.20
2022-09-18T17:28:07.946Z,13.20
2022-09-18T17:30:34.593Z,13.20
2022-09-18T17:33:01.301Z,13.20
2022-09-18T17:35:27.961Z,13.20
2022-09-18T17:37:54.915Z,13.10
2022-09-18T17:40:21.698Z,13.10
2022-09-18T17:42:48.340Z,13.00
2022-09-18T17:45:15.247Z,12.90
2022-09-18T17:47:42.086Z,12.90
2022-09-18T17:50:08.766Z,12.90
2022-09-18T17:52:36.703Z,12.90
2022-09-18T17:55:03.593Z,12.90
2022-09-18T17:57:31.088Z,12.90
2022-09-18T17:59:57.949Z,12.90
2022-09-18T18:02:25.122Z,12.90
2022-09-18T18:04:51.895Z,12.80
2022-09-18T18:07:19.089Z,12.80
2022-09-18T18:09:45.759Z,12.80
2022-09-18T18:12:12.580Z,12.70
2022-09-18T18:14:39.229Z,12.70
2022-09-18T18:17:06.663Z,12.70
2022-09-18T18:19:33.358Z,12.60
2022-09-18T18:22:00.270Z,12.60
2022-09-18T18:24:27.275Z,12.60
2022-09-18T18:26:55.645Z,12.70
2022-09-18T18:29:22.676Z,12.70
2022-09-18T18:31:50.453Z,12.70
2022-09-18T18:34:22.302Z,12.80
2022-09-18T18:36:50.331Z,12.80
2022-09-18T18:39:19.892Z,12.80
2022-09-18T18:41:47.185Z,12.90
2022-09-18T18:44:14.082Z,12.90
2022-09-18T18:46:40.990Z,12.90
2022-09-18T18:49:10.184Z,12.90
2022-09-18T18:51:42.930Z,12.80
2022-09-18T18:54:10.153Z,12.80
2022-09-18T18:56:38.290Z,12.70
2022-09-18T18:59:07.967Z,12.70
2022-09-18T19:01:36.819Z,12.60
2022-09-18T19:04:08.988Z,12.50
2022-09-18T19:06:39.068Z,12.40
2022-09-18T19:09:19.787Z,12.40
2022-09-18T19:11:48.478Z,12.40
2022-09-18T19:14:21.605Z,12.30
2022-09-18T19:16:49.588Z,12.20
2022-09-18T19:19:18.262Z,12.20
2022-09-18T19:21:45.218Z,12.20
2022-09-18T19:24:12.803Z,12.10
2022-09-18T19:26:41.206Z,12.10
2022-09-18T19:29:12.168Z,12.10
2022-09-18T19:31:40.688Z,12.10
2022-09-18T19:34:07.542Z,12.10
2022-09-18T19:36:34.765Z,12.00
2022-09-18T19:39:04.343Z,12.10
2022-09-18T19:41:39.458Z,12.10
2022-09-18T19:44:12.741Z,12.10
2022-09-18T19:46:39.883Z,12.00
2022-09-18T19:49:13.222Z,12.00
2022-09-18T19:51:40.065Z,12.00
2022-09-18T19:54:07.121Z,12.00
2022-09-18T19:56:42.880Z,12.00
2022-09-18T19:59:10.384Z,12.00
2022-09-18T20:01:37.242Z,12.00
2022-09-18T20:04:04.032Z,11.90
2022-09-18T20:06:32.478Z,11.90
2022-09-18T20:09:00.095Z,11.90
2022-09-18T20:11:27.126Z,11.90
2022-09-18T20:13:54.216Z,11.90
2022-09-18T20:16:23.056Z,11.90
2022-09-18T20:18:50.140Z,11.90
2022-09-18T20:21:18.810Z,11.90
2022-09-18T20:23:46.948Z,11.90
2022-09-18T20:26:16.608Z,11.90
2022-09-18T20:28:43.795Z,11.90
2022-09-18T20:31:13.337Z,11.90
2022-09-18T20:33:41.445Z,11.80
2022-09-18T20:36:11.517Z,11.80
2022-09-18T20:38:41.910Z,11.80
2022-09-18T20:41:15.306Z,11.70
2022-09-18T20:43:44.124Z,11.50
2022-09-18T20:46:17.731Z,11.40
2022-09-18T20:48:54.973Z,11.20
2022-09-18T20:51:26.916Z,11.10
2022-09-18T20:53:58.438Z,11.00
2022-09-18T20:56:27.313Z,11.00
2022-09-18T20:58:54.738Z,10.90
2022-09-18T21:01:24.129Z,10.80
2022-09-18T21:03:56.641Z,10.70
2022-09-18T21:06:25.484Z,10.60
2022-09-18T21:08:54.195Z,10.60
2022-09-18T21:11:27.929Z,10.60
2022-09-18T21:14:00.235Z,10.60
2022-09-18T21:16:29.515Z,10.60
2022-09-18T21:18:59.059Z,10.60
2022-09-18T21:21:26.958Z,10.60
2022-09-18T21:23:58.503Z,10.60
2022-09-18T21:26:30.929Z,10.60
2022-09-18T21:28:59.094Z,10.50
2022-09-18T21:31:26.563Z,10.50
2022-09-18T21:33:53.976Z,10.40
2022-09-18T21:36:25.571Z,10.40
2022-09-18T21:38:53.863Z,10.30
2022-09-18T21:41:22.736Z,10.30
2022-09-18T21:43:50.924Z,10.30
2022-09-18T21:46:21.100Z,10.20
2022-09-18T21:48:52.801Z,10.20
2022-09-18T21:51:19.994Z,10.20
2022-09-18T21:53:46.892Z,10.20
2022-09-18T21:56:17.090Z,10.10
2022-09-18T21:58:45.508Z,10.10
2022-09-18T22:01:16.106Z,10.10
2022-09-18T22:03:50.643Z,10.00
2022-09-18T22:06:19.477Z,10.00
2022-09-18T22:08:50.012Z,9.90
2022-09-18T22:11:23.631Z,9.90
2022-09-18T22:13:52.531Z,9.90
2022-09-18T22:16:20.766Z,9.90
2022-09-18T22:18:48.533Z,9.90
2022-09-18T22:21:20.416Z,9.90
2022-09-18T22:23:54.843Z,9.90
2022-09-18T22:26:24.928Z,9.90
2022-09-18T22:28:54.284Z,9.90
2022-09-18T22:31:21.383Z,9.90
2022-09-18T22:33:49.048Z,9.90
2022-09-18T22:36:15.874Z,9.90
2022-09-18T22:38:42.722Z,9.90
2022-09-18T22:41:09.885Z,10.00
2022-09-18T22:43:37.390Z,10.00
2022-09-18T22:46:08.453Z,10.00
2022-09-18T22:48:36.097Z,10.00
2022-09-18T22:51:04.862Z,10.00
2022-09-18T22:53:32.409Z,10.00
2022-09-18T22:56:07.798Z,10.10
2022-09-18T22:58:38.034Z,10.10
2022-09-18T23:01:10.518Z,10.10
2022-09-18T23:03:38.427Z,10.00
2022-09-18T23:06:07.058Z,10.00
2022-09-18T23:08:34.887Z,10.00
2022-09-18T23:11:06.891Z,10.00
2022-09-18T23:13:33.702Z,10.00
2022-09-18T23:16:05.775Z,10.00
2022-09-18T23:18:32.764Z,10.10
2022-09-18T23:21:01.926Z,10.10
2022-09-18T23:23:31.178Z,10.10
2022-09-18T23:26:03.506Z,10.20
2022-09-18T23:28:37.865Z,10.20
2022-09-18T23:31:19.819Z,10.20
2022-09-18T23:33:52.028Z,10.10
2022-09-18T23:36:24.548Z,10.10
2022-09-18T23:38:59.886Z,10.10
2022-09-18T23:41:29.742Z,10.10
2022-09-18T23:43:56.841Z,10.00
2022-09-18T23:46:24.135Z,10.00
2022-09-18T23:48:55.022Z,10.00
2022-09-18T23:51:23.603Z,10.10
2022-09-18T23:53:50.605Z,10.00
2022-09-18T23:56:17.609Z,10.10
2022-09-18T23:58:44.848Z,10.10
